Time;durP1;ratioP1;P1;durP2;ratioP2;P2;SDS_P1;SDS_P2;PMS_P1;PMS_P2;Temp;Humidity;BMP_temperature;BMP_pressure;BME280_temperature;BME280_humidity;BME280_pressure;Samples;Min_cycle;Max_cycle;Signal;HPM_P1;HPM_P2
2021/03/13 17:43:09;;;;;;;18.88;13.73;;;;;;;8.08;68.89;93654.72;5053555;27;20365;-83
2021/03/13 17:45:38;;;;;;;16.92;12.45;;;;;;;8.12;69.19;93663.63;5011683;28;20083;-84
2021/03/13 17:48:04;;;;;;;17.02;12.38;;;;;;;8.18;68.89;93671.22;5020017;28;20052;-84
2021/03/13 17:50:30;;;;;;;18.58;12.55;;;;;;;8.20;68.89;93684.91;5014156;28;20087;-84
2021/03/13 17:52:55;;;;;;;16.63;12.68;;;;;;;8.19;69.33;93693.84;5013701;28;20041;-84
2021/03/13 17:55:23;;;;;;;16.05;11.48;;;;;;;7.84;69.43;93638.88;5006678;28;20509;-84
2021/03/13 17:57:54;;;;;;;18.33;11.65;;;;;;;7.92;69.42;93674.31;4986293;28;20057;-84
2021/03/13 18:00:23;;;;;;;16.92;11.65;;;;;;;7.80;70.34;93674.69;5008269;28;20440;-84
2021/03/13 18:02:48;;;;;;;15.68;12.90;;;;;;;7.74;70.70;93666.03;5002294;28;20565;-84
2021/03/13 18:05:17;;;;;;;14.75;11.43;;;;;;;7.55;70.63;93645.91;4952665;28;20041;-85
2021/03/13 18:07:42;;;;;;;13.38;10.40;;;;;;;7.84;71.25;93699.38;4999742;28;20173;-84
2021/03/13 18:10:08;;;;;;;17.20;11.85;;;;;;;7.56;71.12;93655.38;4978560;28;20175;-84
2021/03/13 18:12:36;;;;;;;14.55;11.65;;;;;;;7.77;71.46;93701.53;4993523;28;20018;-84
2021/03/13 18:15:02;;;;;;;17.52;12.13;;;;;;;7.54;72.21;93660.09;4964940;28;20622;-84
2021/03/13 18:17:28;;;;;;;15.38;11.65;;;;;;;7.44;71.92;93654.91;4987577;28;20562;-83
2021/03/13 18:19:53;;;;;;;16.13;11.88;;;;;;;7.50;71.95;93659.88;4992200;28;20051;-84
2021/03/13 18:22:19;;;;;;;17.60;12.23;;;;;;;7.79;71.63;93704.66;4982936;28;20038;-83
2021/03/13 18:24:55;;;;;;;14.23;11.52;;;;;;;7.63;71.62;93685.56;4988158;28;20691;-84
2021/03/13 18:27:20;;;;;;;16.90;12.18;;;;;;;7.42;72.05;93657.03;4980101;28;20038;-83
2021/03/13 18:29:46;;;;;;;15.38;12.18;;;;;;;7.51;71.81;93660.66;4992159;28;20488;-84
2021/03/13 18:32:12;;;;;;;18.38;10.80;;;;;;;7.39;71.70;93648.63;4997351;28;20045;-84
2021/03/13 18:34:38;;;;;;;14.90;12.30;;;;;;;7.44;71.46;93655.69;5005599;28;20042;-84
2021/03/13 18:37:03;;;;;;;16.67;11.32;;;;;;;7.43;71.91;93662.00;5007363;28;20564;-84
2021/03/13 18:39:29;;;;;;;15.98;12.00;;;;;;;7.54;72.06;93675.88;5003322;28;20032;-83
2021/03/13 18:41:54;;;;;;;16.15;11.63;;;;;;;7.57;71.65;93683.25;5001313;28;20148;-84
2021/03/13 18:44:31;;;;;;;14.82;12.30;;;;;;;7.61;71.97;93697.41;5007692;28;20414;-85
2021/03/13 18:47:01;;;;;;;13.05;10.52;;;;;;;7.48;71.95;93677.00;4999435;28;20052;-84
2021/03/13 18:49:29;;;;;;;15.52;10.73;;;;;;;7.52;72.00;93693.78;5020719;28;20033;-83
2021/03/13 18:51:56;;;;;;;18.27;11.10;;;;;;;7.60;72.02;93707.16;5001300;28;20561;-83
2021/03/13 18:54:25;;;;;;;16.95;12.88;;;;;;;7.27;72.33;93656.06;4997415;28;20106;-84
2021/03/13 18:56:56;;;;;;;18.08;12.45;;;;;;;7.39;72.89;93695.16;4949422;28;20295;-84
2021/03/13 18:59:21;;;;;;;21.10;11.02;;;;;;;7.14;72.88;93661.91;4945343;28;20535;-83
2021/03/13 19:01:47;;;;;;;15.23;11.93;;;;;;;7.35;72.84;93694.91;4965302;28;20055;-84
2021/03/13 19:04:15;;;;;;;15.35;11.35;;;;;;;7.47;73.03;93712.22;4972490;28;20058;-83
2021/03/13 19:06:40;;;;;;;16.13;12.05;;;;;;;7.40;73.28;93710.66;4972638;28;20030;-84
2021/03/13 19:09:09;;;;;;;13.13;9.98;;;;;;;7.34;73.22;93700.44;4989934;28;20034;-84
2021/03/13 19:11:34;;;;;;;14.73;10.80;;;;;;;7.40;73.10;93699.38;4984514;28;20556;-85
2021/03/13 19:14:00;;;;;;;13.88;10.68;;;;;;;7.47;73.17;93706.97;4980307;28;20050;-84
2021/03/13 19:16:28;;;;;;;16.48;12.52;;;;;;;7.35;73.50;93694.13;4968148;28;20034;-84
2021/03/13 19:18:54;;;;;;;16.70;11.27;;;;;;;7.21;73.33;93678.16;4972990;28;20038;-83
2021/03/13 19:21:22;;;;;;;16.08;12.73;;;;;;;7.19;73.05;93674.22;4973918;28;20101;-84
2021/03/13 19:23:47;;;;;;;15.40;11.43;;;;;;;7.24;72.98;93676.84;4985694;28;20044;-83
2021/03/13 19:26:13;;;;;;;15.70;10.80;;;;;;;7.23;73.20;93699.69;4980590;28;20054;-84
2021/03/13 19:28:39;;;;;;;14.98;11.30;;;;;;;6.87;73.71;93659.66;4977452;28;20377;-83
2021/03/13 19:31:08;;;;;;;19.92;12.57;;;;;;;7.30;73.49;93718.59;4989863;28;20042;-83
2021/03/13 19:33:33;;;;;;;11.77;8.65;;;;;;;7.20;72.79;93697.63;5010459;28;20029;-84
2021/03/13 19:35:59;;;;;;;11.65;8.32;;;;;;;7.10;72.67;93686.34;4968299;28;20518;-84
2021/03/13 19:38:25;;;;;;;10.43;8.52;;;;;;;7.16;72.72;93686.06;4963828;28;20042;-84
2021/03/13 19:40:54;;;;;;;12.13;9.35;;;;;;;7.16;72.70;93696.59;4961050;28;20051;-84
2021/03/13 19:43:19;;;;;;;11.15;9.25;;;;;;;7.22;72.76;93700.78;4974649;28;20057;-84
2021/03/13 19:45:44;;;;;;;13.60;9.73;;;;;;;7.33;72.82;93718.06;4991857;28;20029;-85
2021/03/13 19:48:10;;;;;;;13.45;9.30;;;;;;;7.09;72.46;93680.31;4991546;28;20527;-83
2021/03/13 19:50:39;;;;;;;13.55;9.38;;;;;;;7.39;72.72;93732.75;4989434;28;20092;-84
2021/03/13 19:53:05;;;;;;;10.52;9.43;;;;;;;7.34;72.55;93719.63;4985693;28;20585;-84
2021/03/13 19:55:30;;;;;;;14.90;10.20;;;;;;;7.36;72.38;93727.25;4983290;28;20047;-84
2021/03/13 19:57:56;;;;;;;14.25;10.00;;;;;;;7.17;72.79;93703.44;4968713;28;20022;-83
2021/03/13 20:00:25;;;;;;;13.50;9.18;;;;;;;7.32;72.82;93729.66;4969288;28;20030;-83
2021/03/13 20:02:57;;;;;;;20.02;15.02;;;;;;;7.11;73.28;93722.09;4972630;28;20154;-83
2021/03/13 20:05:24;;;;;;;19.77;14.25;;;;;;;7.05;73.43;93689.00;4983607;28;20042;-83
2021/03/13 20:07:53;;;;;;;24.25;15.98;;;;;;;7.33;72.47;93717.28;4967545;28;20042;-84
2021/03/13 20:10:22;;;;;;;18.25;12.88;;;;;;;7.27;71.99;93679.72;4976233;28;20050;-83
2021/03/13 20:12:47;;;;;;;16.65;12.82;;;;;;;7.19;71.95;93669.75;4970892;28;20041;-83
2021/03/13 20:15:15;;;;;;;15.45;10.35;;;;;;;7.62;71.33;93730.56;4987465;28;20552;-83
2021/03/13 20:17:41;;;;;;;17.15;13.38;;;;;;;7.43;71.47;93701.44;4971608;28;20050;-83
2021/03/13 20:20:08;;;;;;;12.95;10.40;;;;;;;7.68;71.25;93721.56;4982187;28;20034;-83
2021/03/13 20:22:34;;;;;;;11.32;8.25;;;;;;;7.51;71.32;93713.25;4988816;28;20508;-82
2021/03/13 20:25:01;;;;;;;10.35;8.60;;;;;;;7.51;71.11;93702.72;4990474;28;20065;-82
2021/03/13 20:27:28;;;;;;;12.35;9.88;;;;;;;7.42;71.34;93701.72;4972047;28;21245;-81
2021/03/13 20:29:54;;;;;;;13.18;11.48;;;;;;;7.46;71.89;93727.22;4971757;28;20603;-81
2021/03/13 20:32:20;;;;;;;9.63;8.63;;;;;;;7.14;71.88;93677.66;4962915;28;20042;-81
2021/03/13 20:34:45;;;;;;;13.63;9.10;;;;;;;7.29;72.11;93717.03;4968356;28;20606;-81
2021/03/13 20:37:11;;;;;;;12.80;8.75;;;;;;;7.19;71.47;93674.22;4970959;28;20039;-81
2021/03/13 20:39:39;;;;;;;11.77;9.00;;;;;;;7.40;71.25;93702.78;4967382;28;20022;-81
2021/03/13 20:42:05;;;;;;;12.75;9.98;;;;;;;7.29;71.26;93700.47;4958880;28;20058;-81
2021/03/13 20:44:30;;;;;;;13.20;9.80;;;;;;;7.38;71.56;93715.41;4948701;28;20050;-81
2021/03/13 20:46:58;;;;;;;15.20;10.13;;;;;;;7.55;71.02;93732.69;4940419;28;20551;-82
2021/03/13 20:49:26;;;;;;;22.20;15.38;;;;;;;7.23;71.19;93704.94;4952209;28;20414;-81
2021/03/13 20:51:55;;;;;;;22.90;15.05;;;;;;;7.40;71.53;93730.91;4968396;28;20084;-82
2021/03/13 20:54:21;;;;;;;17.58;13.02;;;;;;;7.45;71.49;93730.09;4969250;28;20479;-82
2021/03/13 20:56:46;;;;;;;20.02;13.27;;;;;;;7.35;71.64;93710.69;4968470;28;20038;-81
2021/03/13 20:59:12;;;;;;;13.73;9.57;;;;;;;7.42;71.03;93730.66;4967114;28;20487;-81
2021/03/13 21:01:38;;;;;;;13.77;9.68;;;;;;;7.23;71.21;93712.06;4971740;28;20061;-81
2021/03/13 21:04:07;;;;;;;16.33;10.75;;;;;;;7.31;71.58;93749.09;4964989;28;20061;-80
2021/03/13 21:06:34;;;;;;;10.98;9.68;;;;;;;7.24;71.59;93750.41;4970444;28;20030;-81
2021/03/13 21:08:59;;;;;;;12.23;9.02;;;;;;;7.20;71.53;93749.38;4970815;28;20050;-81
2021/03/13 21:11:25;;;;;;;10.50;8.82;;;;;;;7.27;71.79;93753.31;4970809;28;20064;-81
2021/03/13 21:13:53;;;;;;;13.60;9.40;;;;;;;7.05;71.50;93737.09;4973162;28;20054;-82
2021/03/13 21:16:19;;;;;;;20.92;14.80;;;;;;;6.83;72.28;93708.53;4971839;28;20782;-81
2021/03/13 21:18:44;;;;;;;22.73;16.80;;;;;;;6.85;72.79;93705.63;4987955;28;20030;-82
2021/03/13 21:21:10;;;;;;;15.90;14.13;;;;;;;6.87;72.18;93706.16;4967800;28;20454;-81
2021/03/13 21:23:35;;;;;;;17.02;12.75;;;;;;;7.12;72.26;93747.31;4972895;28;20034;-81
2021/03/13 21:26:02;;;;;;;13.18;10.43;;;;;;;7.13;72.97;93749.69;4969029;28;20204;-81
2021/03/13 21:28:29;;;;;;;15.10;9.90;;;;;;;7.26;71.84;93746.50;4960717;28;20088;-81
2021/03/13 21:30:54;;;;;;;18.60;15.00;;;;;;;7.23;72.19;93739.13;4968504;28;20804;-81
2021/03/13 21:33:22;;;;;;;10.13;8.80;;;;;;;7.26;71.81;93754.38;4970354;28;20030;-82
2021/03/13 21:35:48;;;;;;;20.70;9.20;;;;;;;6.78;72.78;93690.16;4981039;28;20133;-81
2021/03/13 21:38:13;;;;;;;9.63;8.05;;;;;;;7.00;72.70;93718.72;4966665;28;20560;-82
2021/03/13 21:40:43;;;;;;;11.18;8.43;;;;;;;6.87;72.62;93714.03;4966160;28;20615;-81
2021/03/13 21:43:09;;;;;;;11.35;8.90;;;;;;;6.56;73.12;93689.66;4983781;28;20485;-82
2021/03/13 21:45:34;;;;;;;12.57;9.52;;;;;;;6.71;73.26;93709.84;4971517;28;20061;-82
2021/03/13 21:48:00;;;;;;;10.45;8.52;;;;;;;6.65;73.00;93689.91;4972572;28;20073;-81
2021/03/13 21:50:25;;;;;;;10.38;8.52;;;;;;;6.78;72.78;93710.38;4971774;28;20126;-81
2021/03/13 21:52:54;;;;;;;11.90;8.20;;;;;;;6.63;73.07;93684.94;4970179;28;20038;-82
2021/03/13 21:55:20;;;;;;;13.05;9.30;;;;;;;6.87;73.44;93724.53;4974677;28;20568;-83
2021/03/13 21:57:45;;;;;;;11.43;9.35;;;;;;;6.56;73.40;93686.25;4972306;28;20030;-81
2021/03/13 22:00:14;;;;;;;18.05;11.80;;;;;;;6.58;73.67;93684.16;4978177;28;20038;-81
2021/03/13 22:02:39;;;;;;;14.93;10.25;;;;;;;6.45;74.27;93670.53;4966899;28;20383;-82
2021/03/13 22:05:08;;;;;;;13.20;8.88;;;;;;;6.59;74.05;93678.66;4972114;28;20128;-82
2021/03/13 22:07:34;;;;;;;9.43;7.28;;;;;;;6.45;73.55;93673.16;4955499;28;20838;-82
2021/03/13 22:10:00;;;;;;;12.68;8.77;;;;;;;6.37;73.86;93668.44;4982007;28;20047;-82
2021/03/13 22:12:28;;;;;;;11.55;8.02;;;;;;;6.40;74.61;93683.66;4966631;28;20479;-82
2021/03/13 22:14:54;;;;;;;7.75;6.90;;;;;;;6.36;74.57;93664.25;4968207;28;20849;-81
2021/03/13 22:17:19;;;;;;;9.18;7.57;;;;;;;6.51;74.09;93679.97;4970987;28;20125;-82
2021/03/13 22:19:48;;;;;;;10.00;7.07;;;;;;;6.42;74.17;93660.56;4980457;28;20039;-82
2021/03/13 22:22:16;;;;;;;10.18;8.98;;;;;;;6.39;74.54;93674.22;4970918;28;20056;-81
2021/03/13 22:24:44;;;;;;;9.27;7.35;;;;;;;6.34;74.16;93666.38;4973352;28;20026;-82
2021/03/13 22:27:10;;;;;;;15.25;11.60;;;;;;;6.73;73.79;93713.03;4974022;28;20440;-82
2021/03/13 22:29:38;;;;;;;18.20;13.32;;;;;;;6.70;74.82;93698.56;4973887;28;20030;-84
2021/03/13 22:32:04;;;;;;;26.58;19.58;;;;;;;6.60;75.59;93664.44;4969081;28;20037;-83
2021/03/13 22:34:30;;;;;;;25.20;16.50;;;;;;;6.60;74.55;93661.06;4973716;28;20050;-82
2021/03/13 22:37:03;;;;;;;19.65;13.75;;;;;;;6.73;74.96;93676.25;4975896;28;20812;-82
2021/03/13 22:39:28;;;;;;;19.92;13.05;;;;;;;6.71;74.62;93646.84;4980451;28;20025;-82
2021/03/13 22:41:55;;;;;;;19.55;12.57;;;;;;;6.47;73.90;93618.56;4965785;28;20060;-82
2021/03/13 22:44:21;;;;;;;17.08;11.35;;;;;;;6.62;74.23;93648.44;4969152;28;20050;-82
2021/03/13 22:46:46;;;;;;;14.98;11.05;;;;;;;6.89;73.71;93677.78;4975346;28;20046;-84
2021/03/13 22:49:12;;;;;;;20.83;13.18;;;;;;;6.90;73.79;93671.47;4975001;28;20053;-82
2021/03/13 22:51:40;;;;;;;19.52;14.82;;;;;;;6.82;73.63;93675.44;4993794;28;20022;-82
2021/03/13 22:54:08;;;;;;;16.50;12.63;;;;;;;6.79;73.75;93675.94;4976775;28;20053;-82
2021/03/13 22:56:35;;;;;;;22.38;14.70;;;;;;;6.68;73.16;93652.63;4976485;28;20043;-82
2021/03/13 22:59:19;;;;;;;26.15;18.52;;;;;;;6.60;73.40;93658.44;4990063;28;20133;-82
2021/03/13 23:01:47;;;;;;;25.15;16.63;;;;;;;6.69;73.79;93662.09;4977279;28;20078;-83
2021/03/13 23:04:13;;;;;;;27.02;17.05;;;;;;;6.55;74.57;93671.59;4979455;28;20057;-82
2021/03/13 23:10:13;;;;;;;20.08;14.23;;;;;;;6.46;74.53;93645.84;4928706;28;20038;-82
2021/03/13 23:12:47;;;;;;;17.98;12.80;;;;;;;6.21;74.46;93632.78;4961306;28;20034;-82
2021/03/13 23:15:13;;;;;;;19.13;13.25;;;;;;;6.08;74.68;93596.59;4905697;28;20053;-82
2021/03/13 23:17:45;;;;;;;15.60;11.35;;;;;;;6.27;74.07;93599.44;4962422;28;20030;-82
2021/03/13 23:20:26;;;;;;;13.88;10.18;;;;;;;6.39;74.03;93628.81;4905437;28;20419;-82
2021/03/13 23:22:59;;;;;;;14.38;9.48;;;;;;;6.41;74.49;93632.75;4973794;28;20688;-82
2021/03/13 23:25:44;;;;;;;13.30;8.60;;;;;;;6.08;74.21;93586.91;4949366;28;20042;-81
2021/03/13 23:28:13;;;;;;;13.05;9.55;;;;;;;6.38;74.84;93649.03;4972651;28;20142;-82
2021/03/13 23:30:54;;;;;;;13.88;8.93;;;;;;;6.04;74.16;93591.09;4972022;28;20036;-82
2021/03/13 23:33:25;;;;;;;15.35;9.05;;;;;;;6.35;75.00;93641.66;4972091;28;20518;-82
2021/03/13 23:36:03;;;;;;;11.30;8.73;;;;;;;6.13;74.95;93629.91;4970189;28;20059;-82
2021/03/13 23:38:36;;;;;;;13.02;8.95;;;;;;;5.79;74.90;93587.69;4948335;28;20038;-82
2021/03/13 23:41:13;;;;;;;11.20;9.27;;;;;;;5.97;74.46;93598.44;4972825;28;20141;-82
2021/03/13 23:43:44;;;;;;;14.77;8.43;;;;;;;6.12;74.28;93616.00;4958743;28;20137;-82
2021/03/13 23:46:21;;;;;;;13.82;9.40;;;;;;;6.20;74.50;93635.69;4978888;28;20609;-82
2021/03/13 23:48:47;;;;;;;11.07;8.43;;;;;;;6.08;74.66;93613.13;4995089;28;20018;-81
2021/03/13 23:51:19;;;;;;;13.38;9.60;;;;;;;5.70;74.44;93569.09;4953526;28;20120;-82
2021/03/13 23:53:47;;;;;;;11.95;8.25;;;;;;;6.14;74.38;93621.78;4966403;28;20073;-82
2021/03/13 23:56:15;;;;;;;34.33;24.45;;;;;;;5.74;75.13;93570.13;4971151;28;20777;-82
2021/03/13 23:58:41;;;;;;;23.02;16.02;;;;;;;6.09;75.23;93640.16;4902977;28;20066;-82
